Time;durP1;ratioP1;P1;durP2;ratioP2;P2;SDS_P1;SDS_P2;PMS_P1;PMS_P2;Temp;Humidity;BMP_temperature;BMP_pressure;BME280_temperature;BME280_humidity;BME280_pressure;Samples;Min_cycle;Max_cycle;Signal;HPM_P1;HPM_P2
2023/06/17 00:00:30;;;;;;;12.40;5.90;;;17.60;99.90;;;;;;5012240;28;20397;-76
2023/06/17 00:02:55;;;;;;;12.43;6.63;;;17.70;99.90;;;;;;5012812;28;20415;-76
2023/06/17 00:05:21;;;;;;;11.40;5.90;;;17.70;99.90;;;;;;5011210;28;20404;-76
2023/06/17 00:07:47;;;;;;;10.82;5.90;;;17.60;99.90;;;;;;4999249;28;20816;-76
2023/06/17 00:10:12;;;;;;;12.00;6.20;;;17.60;99.90;;;;;;5008075;28;20408;-76
2023/06/17 00:12:38;;;;;;;11.63;6.37;;;17.60;99.90;;;;;;4992672;28;20394;-76
2023/06/17 00:15:07;;;;;;;10.93;5.70;;;17.50;99.90;;;;;;4992844;28;20751;-76
2023/06/17 00:17:33;;;;;;;13.85;6.72;;;17.40;99.90;;;;;;4992550;28;20419;-76
2023/06/17 00:20:07;;;;;;;13.43;6.23;;;17.30;99.90;;;;;;4993220;28;20413;-76
2023/06/17 00:22:34;;;;;;;12.13;6.15;;;17.20;99.90;;;;;;4994166;28;20417;-76
2023/06/17 00:25:00;;;;;;;14.77;6.10;;;17.20;99.90;;;;;;5011332;28;20536;-76
2023/06/17 00:27:25;;;;;;;11.57;6.07;;;17.20;99.90;;;;;;5012639;28;20921;-76
2023/06/17 00:29:52;;;;;;;12.90;6.83;;;17.30;99.90;;;;;;5011433;28;20417;-75
2023/06/17 00:32:18;;;;;;;13.07;6.60;;;17.20;99.90;;;;;;5011534;28;20747;-75
2023/06/17 00:34:43;;;;;;;12.17;7.10;;;17.00;99.90;;;;;;5011516;28;20450;-75
2023/06/17 00:37:09;;;;;;;11.93;5.93;;;16.90;99.90;;;;;;5010264;28;20976;-76
2023/06/17 00:39:34;;;;;;;12.20;6.20;;;16.90;99.90;;;;;;4993957;28;20392;-76
2023/06/17 00:42:00;;;;;;;15.53;6.57;;;16.90;99.90;;;;;;5011551;28;20960;-76
2023/06/17 00:44:26;;;;;;;15.27;6.78;;;16.90;99.90;;;;;;4993396;28;20487;-76
2023/06/17 00:46:53;;;;;;;14.70;6.53;;;16.70;99.90;;;;;;5011120;28;21027;-76
2023/06/17 00:49:22;;;;;;;15.50;6.80;;;16.60;99.90;;;;;;5011420;28;20789;-76
2023/06/17 00:51:49;;;;;;;12.27;6.20;;;16.50;1.00;;;;;;5010385;28;20420;-76
2023/06/17 00:54:15;;;;;;;12.10;6.65;;;16.50;1.00;;;;;;5011021;28;20460;-76
2023/06/17 00:56:41;;;;;;;14.63;7.28;;;16.40;1.00;;;;;;5011096;28;20388;-76
2023/06/17 00:59:08;;;;;;;13.55;6.20;;;16.30;1.00;;;;;;5010326;28;20421;-76
2023/06/17 01:01:36;;;;;;;12.77;6.28;;;16.30;1.00;;;;;;5010880;28;20399;-76
2023/06/17 01:04:02;;;;;;;12.65;6.72;;;16.20;11.10;;;;;;5010898;28;20428;-76
2023/06/17 01:06:52;;;;;;;12.88;7.03;;;16.30;1.00;;;;;;5009618;28;20492;-76
2023/06/17 01:09:22;;;;;;;15.35;7.03;;;16.30;1.00;;;;;;5010824;28;20625;-76
2023/06/17 01:11:51;;;;;;;10.88;5.90;;;16.30;1.00;;;;;;5010423;28;21105;-76
2023/06/17 01:14:18;;;;;;;12.10;6.30;;;16.40;1.00;;;;;;5010396;28;20878;-76
2023/06/17 01:16:44;;;;;;;13.50;6.10;;;16.50;1.00;;;;;;5011544;28;20735;-76
2023/06/17 01:19:18;;;;;;;14.82;5.97;;;16.60;1.00;;;;;;5011913;28;20417;-76
2023/06/17 01:21:53;;;;;;;12.43;6.10;;;16.60;1.00;;;;;;5009659;28;20466;-76
2023/06/17 01:24:25;;;;;;;12.07;6.25;;;16.70;1.00;;;;;;4994441;28;20392;-76
2023/06/17 01:26:55;;;;;;;12.38;6.55;;;16.60;1.00;;;;;;5010656;28;20417;-76
2023/06/17 01:29:22;;;;;;;11.98;7.00;;;16.60;1.00;;;;;;5011121;28;20766;-76
2023/06/17 01:31:49;;;;;;;13.52;6.72;;;16.40;1.00;;;;;;5010322;28;20972;-76
2023/06/17 01:34:22;;;;;;;14.05;6.60;;;16.50;1.00;;;;;;5009077;28;21267;-76
2023/06/17 01:36:53;;;;;;;12.43;7.15;;;16.40;1.00;;;;;;5011157;28;20424;-76
2023/06/17 01:39:22;;;;;;;11.75;6.70;;;16.30;1.00;;;;;;5010831;28;20429;-76
2023/06/17 01:41:53;;;;;;;14.00;7.30;;;16.20;1.00;;;;;;5011574;28;20409;-76
2023/06/17 01:44:20;;;;;;;14.63;6.55;;;16.20;1.00;;;;;;5010606;28;20903;-76
2023/06/17 01:46:46;;;;;;;14.48;6.82;;;16.10;17.10;;;;;;5011348;28;20785;-76
2023/06/17 01:49:12;;;;;;;12.82;6.43;;;16.00;90.60;;;;;;5011559;28;20404;-76
2023/06/17 01:51:37;;;;;;;13.32;6.88;;;16.10;99.90;;;;;;5010121;28;20953;-76
2023/06/17 01:54:03;;;;;;;13.07;6.80;;;16.10;99.90;;;;;;5010381;28;20393;-76
2023/06/17 01:56:29;;;;;;;14.18;7.10;;;16.10;99.90;;;;;;5010463;28;20455;-76
2023/06/17 01:58:54;;;;;;;14.73;6.90;;;16.00;99.90;;;;;;5009990;28;20425;-76
2023/06/17 02:01:20;;;;;;;13.63;7.03;;;15.90;99.90;;;;;;5008775;28;20409;-76
2023/06/17 02:03:46;;;;;;;13.23;7.15;;;15.90;99.90;;;;;;5009262;28;20416;-76
2023/06/17 02:06:11;;;;;;;13.13;6.80;;;15.90;99.90;;;;;;5009678;28;20408;-75
2023/06/17 02:08:38;;;;;;;13.20;7.27;;;15.90;99.90;;;;;;5009014;28;20404;-76
2023/06/17 02:11:04;;;;;;;16.10;7.05;;;15.80;99.90;;;;;;5009501;28;20909;-76
2023/06/17 02:13:29;;;;;;;13.25;7.03;;;15.80;99.90;;;;;;5010291;28;20435;-76
2023/06/17 02:15:55;;;;;;;15.23;7.77;;;15.80;1.00;;;;;;5009403;28;20461;-76
2023/06/17 02:18:22;;;;;;;13.77;7.20;;;15.80;1.00;;;;;;5008299;28;20413;-76
2023/06/17 02:20:48;;;;;;;13.20;7.15;;;15.80;1.00;;;;;;5009660;28;20405;-76
2023/06/17 02:23:13;;;;;;;15.13;7.70;;;15.80;1.00;;;;;;4992041;28;20770;-76
2023/06/17 02:25:39;;;;;;;14.85;7.82;;;15.70;1.00;;;;;;5009773;28;20393;-76
2023/06/17 02:28:05;;;;;;;15.03;7.30;;;15.70;1.00;;;;;;4991803;28;20396;-76
2023/06/17 02:30:31;;;;;;;16.50;7.95;;;15.70;1.00;;;;;;5009325;28;20388;-76
2023/06/17 02:32:56;;;;;;;15.07;7.73;;;15.60;1.00;;;;;;5009093;28;20397;-76
2023/06/17 02:35:22;;;;;;;14.73;7.73;;;15.50;1.00;;;;;;5007425;28;20471;-75
2023/06/17 02:37:47;;;;;;;14.50;7.45;;;15.50;1.00;;;;;;5008194;28;20544;-75
2023/06/17 02:40:13;;;;;;;15.50;7.93;;;15.60;1.00;;;;;;5007509;28;20503;-75
2023/06/17 02:42:39;;;;;;;14.97;8.40;;;15.50;1.00;;;;;;5008837;28;20412;-75
2023/06/17 02:45:07;;;;;;;15.90;7.95;;;15.50;1.00;;;;;;5008036;28;20885;-75
2023/06/17 02:47:32;;;;;;;14.77;8.30;;;15.40;1.00;;;;;;4995304;28;20402;-75
2023/06/17 02:49:58;;;;;;;14.00;8.07;;;15.30;10.80;;;;;;4988589;28;20914;-75
2023/06/17 02:52:24;;;;;;;17.02;8.00;;;15.30;28.60;;;;;;4970894;28;20977;-75
2023/06/17 02:54:50;;;;;;;15.10;8.00;;;15.20;99.90;;;;;;4988165;28;20488;-75
2023/06/17 02:57:16;;;;;;;14.68;7.70;;;15.20;99.90;;;;;;5006390;28;20439;-75
2023/06/17 02:59:42;;;;;;;13.50;7.28;;;15.20;99.90;;;;;;5007926;28;20385;-75
2023/06/17 03:02:08;;;;;;;14.60;7.65;;;15.20;99.90;;;;;;5007391;28;20409;-75
2023/06/17 03:04:37;;;;;;;12.50;7.50;;;15.20;99.90;;;;;;5007980;28;20897;-75
2023/06/17 03:07:06;;;;;;;13.05;7.50;;;15.10;99.90;;;;;;5008430;28;20385;-74
2023/06/17 03:09:31;;;;;;;13.70;7.00;;;15.10;99.90;;;;;;5008815;28;20381;-74
2023/06/17 03:11:58;;;;;;;13.50;7.30;;;15.10;99.90;;;;;;5008558;28;20388;-75
2023/06/17 03:14:24;;;;;;;14.20;7.80;;;15.10;99.90;;;;;;5007921;28;20400;-75
2023/06/17 03:16:50;;;;;;;13.20;7.10;;;15.10;99.90;;;;;;5007532;28;20409;-75
2023/06/17 03:19:16;;;;;;;12.00;6.43;;;15.20;99.90;;;;;;5007787;28;20433;-75
2023/06/17 03:21:42;;;;;;;12.80;7.03;;;15.20;99.90;;;;;;5008048;28;20392;-75
2023/06/17 03:24:08;;;;;;;14.05;7.28;;;15.10;99.90;;;;;;5007922;28;20389;-75
2023/06/17 03:26:34;;;;;;;13.70;6.70;;;15.10;99.90;;;;;;5007840;28;20926;-75
2023/06/17 03:29:01;;;;;;;14.38;7.05;;;15.10;99.90;;;;;;5007483;28;20396;-75
2023/06/17 03:31:28;;;;;;;14.50;6.60;;;15.00;1.00;;;;;;5000897;28;20938;-75
2023/06/17 03:33:53;;;;;;;19.33;7.75;;;15.00;1.00;;;;;;4988404;28;20505;-75
2023/06/17 03:36:24;;;;;;;12.23;6.72;;;14.90;1.00;;;;;;5007641;28;20937;-75
2023/06/17 03:38:50;;;;;;;15.77;7.95;;;14.90;1.00;;;;;;5007230;28;20956;-75
2023/06/17 03:41:15;;;;;;;15.38;8.18;;;14.90;1.00;;;;;;5007746;28;20404;-75
2023/06/17 03:43:41;;;;;;;13.10;7.20;;;14.90;99.90;;;;;;5007262;28;20889;-75
2023/06/17 03:46:07;;;;;;;15.73;7.77;;;15.00;1.00;;;;;;4989869;28;20404;-75
2023/06/17 03:48:32;;;;;;;15.07;7.20;;;15.10;1.00;;;;;;5008401;28;20809;-75
2023/06/17 03:50:57;;;;;;;13.70;7.85;;;15.10;1.00;;;;;;5007780;28;20396;-75
2023/06/17 03:53:23;;;;;;;14.98;7.50;;;15.20;1.00;;;;;;5007222;28;20413;-75
2023/06/17 03:55:48;;;;;;;13.70;7.80;;;15.30;99.90;;;;;;5007631;28;20409;-75
2023/06/17 03:58:14;;;;;;;13.40;7.23;;;15.30;99.90;;;;;;5007027;28;20452;-75
2023/06/17 04:00:41;;;;;;;14.85;7.80;;;15.40;99.90;;;;;;5010225;28;20731;-75
2023/06/17 04:03:07;;;;;;;16.65;8.05;;;15.60;24.30;;;;;;4993495;28;20408;-75
2023/06/17 04:05:33;;;;;;;12.30;6.93;;;15.60;1.00;;;;;;5011026;28;20392;-75
2023/06/17 04:08:02;;;;;;;14.47;7.67;;;15.60;65.70;;;;;;5011493;28;20393;-75
2023/06/17 04:10:27;;;;;;;14.35;7.75;;;15.60;51.50;;;;;;4993918;28;20404;-75
2023/06/17 04:12:53;;;;;;;13.03;6.93;;;15.70;1.00;;;;;;5010323;28;20447;-75
2023/06/17 04:15:19;;;;;;;16.37;7.90;;;15.70;1.00;;;;;;5010005;28;20519;-75
2023/06/17 04:17:44;;;;;;;14.35;7.80;;;15.80;1.00;;;;;;5010503;28;20440;-75
2023/06/17 04:20:12;;;;;;;13.18;7.63;;;15.80;1.00;;;;;;5010517;28;20388;-74
2023/06/17 04:22:41;;;;;;;14.00;7.30;;;15.80;10.90;;;;;;5010722;28;20389;-74
2023/06/17 04:25:12;;;;;;;13.82;8.10;;;15.80;1.00;;;;;;5011237;28;20451;-74
2023/06/17 04:27:38;;;;;;;15.32;7.30;;;15.90;1.00;;;;;;5010255;28;20393;-74
2023/06/17 04:30:06;;;;;;;16.55;8.82;;;15.90;1.00;;;;;;5008614;28;20408;-74
2023/06/17 04:32:35;;;;;;;12.75;7.88;;;16.00;1.00;;;;;;5010756;28;20393;-74
2023/06/17 04:35:03;;;;;;;13.82;7.38;;;16.10;1.00;;;;;;5010081;28;20463;-74
2023/06/17 04:37:32;;;;;;;13.00;7.07;;;16.10;1.00;;;;;;5010219;28;20788;-74
2023/06/17 04:39:59;;;;;;;14.68;7.45;;;16.30;1.00;;;;;;5010718;28;21259;-74
2023/06/17 04:42:25;;;;;;;14.60;7.57;;;16.50;99.90;;;;;;5010443;28;20399;-74
2023/06/17 04:44:51;;;;;;;13.52;7.40;;;16.70;99.90;;;;;;5008497;28;20420;-75
2023/06/17 04:47:19;;;;;;;13.93;7.35;;;16.80;99.90;;;;;;5009957;28;20440;-75
2023/06/17 04:49:47;;;;;;;15.65;7.35;;;17.00;99.90;;;;;;5010594;28;20475;-76
2023/06/17 04:52:13;;;;;;;13.40;7.55;;;17.00;99.90;;;;;;5010270;28;20401;-76
2023/06/17 04:54:39;;;;;;;13.38;7.50;;;17.00;99.90;;;;;;5009463;28;20432;-76
2023/06/17 04:57:08;;;;;;;16.95;7.50;;;17.10;99.90;;;;;;5010137;28;20396;-76
2023/06/17 04:59:34;;;;;;;12.95;7.18;;;17.70;6.30;;;;;;5008292;28;20408;-76
2023/06/17 05:01:59;;;;;;;13.47;8.13;;;18.20;1.00;;;;;;5009012;28;20421;-76
2023/06/17 05:04:25;;;;;;;12.63;7.03;;;18.30;1.00;;;;;;5010443;28;20401;-75
2023/06/17 05:06:50;;;;;;;13.83;7.40;;;18.80;1.00;;;;;;5009567;28;20401;-75
2023/06/17 05:09:16;;;;;;;13.00;8.00;;;19.40;1.00;;;;;;5009477;28;20484;-76
2023/06/17 05:11:42;;;;;;;14.73;8.20;;;20.20;99.90;;;;;;5009564;28;20381;-76
2023/06/17 05:14:08;;;;;;;12.80;7.20;;;21.10;99.90;;;;;;5008758;28;20412;-75
2023/06/17 05:16:34;;;;;;;14.03;7.53;;;22.20;99.90;;;;;;5009378;28;20407;-75
2023/06/17 05:19:00;;;;;;;12.85;7.50;;;22.80;99.90;;;;;;4986545;28;20434;-75
2023/06/17 05:21:26;;;;;;;13.07;7.40;;;23.60;99.90;;;;;;4990397;28;20888;-75
2023/06/17 05:23:51;;;;;;;14.67;7.43;;;23.80;99.90;;;;;;4989760;28;20399;-75
2023/06/17 05:26:17;;;;;;;12.77;7.13;;;23.60;99.90;;;;;;4989735;28;20383;-75
2023/06/17 05:28:43;;;;;;;11.63;6.83;;;23.50;99.90;;;;;;4996455;28;20412;-75
2023/06/17 05:31:09;;;;;;;13.57;7.30;;;23.90;99.90;;;;;;4996900;28;20410;-75
2023/06/17 05:33:36;;;;;;;12.30;6.75;;;24.30;99.90;;;;;;5008953;28;20727;-76
2023/06/17 05:36:02;;;;;;;12.75;7.20;;;25.00;99.90;;;;;;5008990;28;20409;-76
2023/06/17 05:38:28;;;;;;;13.60;7.20;;;25.50;99.90;;;;;;5009456;28;20417;-76
2023/06/17 05:40:54;;;;;;;13.73;7.20;;;25.80;99.90;;;;;;5009161;28;20455;-75
2023/06/17 05:43:19;;;;;;;13.70;7.50;;;25.60;99.90;;;;;;5006899;28;20408;-76
2023/06/17 05:45:45;;;;;;;11.63;7.10;;;26.10;99.90;;;;;;4989613;28;20414;-76
2023/06/17 05:48:11;;;;;;;14.20;6.83;;;26.50;99.90;;;;;;4989699;28;20406;-76
2023/06/17 05:50:36;;;;;;;12.17;7.20;;;26.90;99.90;;;;;;4999432;28;20948;-76
2023/06/17 05:53:02;;;;;;;13.93;7.20;;;26.80;99.90;;;;;;5004809;28;20407;-76
2023/06/17 05:55:28;;;;;;;14.03;6.80;;;26.50;99.90;;;;;;5009387;28;20761;-76
2023/06/17 05:57:54;;;;;;;12.50;7.30;;;26.60;99.90;;;;;;5008736;28;20508;-76
2023/06/17 06:00:20;;;;;;;11.83;6.93;;;26.80;99.90;;;;;;5008766;28;20393;-76
2023/06/17 06:02:45;;;;;;;12.95;6.30;;;27.40;99.90;;;;;;4998494;28;20414;-76
2023/06/17 06:05:11;;;;;;;13.00;6.50;;;28.30;99.90;;;;;;4996991;28;20413;-77
2023/06/17 06:07:37;;;;;;;12.50;7.20;;;29.10;99.90;;;;;;4994940;28;20401;-77
2023/06/17 06:10:06;;;;;;;12.90;7.10;;;29.60;99.90;;;;;;4996814;28;20915;-76
2023/06/17 06:12:31;;;;;;;12.57;7.22;;;29.70;99.90;;;;;;4990602;28;20497;-76
2023/06/17 06:14:57;;;;;;;12.57;7.40;;;30.10;99.90;;;;;;4995673;28;20517;-76
2023/06/17 06:17:23;;;;;;;12.43;6.95;;;29.90;99.90;;;;;;4996052;28;20496;-77
2023/06/17 06:19:50;;;;;;;12.60;7.68;;;30.10;99.90;;;;;;4996754;28;21139;-77
2023/06/17 06:22:15;;;;;;;11.30;6.50;;;30.30;99.90;;;;;;5002240;28;20654;-77
2023/06/17 06:24:41;;;;;;;12.20;7.90;;;29.80;99.90;;;;;;4996556;28;20439;-77
2023/06/17 06:27:06;;;;;;;12.60;6.63;;;29.20;99.90;;;;;;4998508;28;20472;-77
2023/06/17 06:29:32;;;;;;;11.55;6.22;;;29.50;99.90;;;;;;4993217;28;20424;-77
2023/06/17 06:31:57;;;;;;;12.13;6.20;;;30.20;99.90;;;;;;4991855;28;20887;-77
2023/06/17 06:34:23;;;;;;;12.13;6.30;;;31.10;99.90;;;;;;4989569;28;20414;-77
2023/06/17 06:36:48;;;;;;;11.43;5.93;;;31.90;99.90;;;;;;5004089;28;20479;-77
2023/06/17 06:39:15;;;;;;;11.03;6.63;;;32.30;99.90;;;;;;4982793;28;20413;-77
2023/06/17 06:41:40;;;;;;;13.15;6.82;;;32.10;99.90;;;;;;4993472;28;20408;-77
2023/06/17 06:44:06;;;;;;;10.82;6.35;;;31.80;99.90;;;;;;4994019;28;20760;-77
2023/06/17 06:46:33;;;;;;;11.80;5.90;;;31.40;99.90;;;;;;4999400;28;20436;-77
2023/06/17 06:48:58;;;;;;;14.35;6.20;;;31.80;99.90;;;;;;4997031;28;20472;-77
2023/06/17 06:51:24;;;;;;;9.60;5.72;;;32.40;99.90;;;;;;4993786;28;20888;-78
2023/06/17 06:53:50;;;;;;;12.70;7.05;;;32.40;99.90;;;;;;5006167;28;20413;-78
2023/06/17 06:56:15;;;;;;;13.07;6.47;;;31.80;99.90;;;;;;5003625;28;20490;-78
2023/06/17 06:58:41;;;;;;;12.70;6.60;;;31.90;99.90;;;;;;5005464;28;20468;-78
2023/06/17 07:01:06;;;;;;;10.63;5.90;;;32.50;99.90;;;;;;5001566;28;20414;-79
2023/06/17 07:03:32;;;;;;;10.77;6.30;;;32.20;99.90;;;;;;5007624;28;20488;-79
2023/06/17 07:05:58;;;;;;;10.57;6.40;;;32.00;99.90;;;;;;5010069;28;21435;-79
2023/06/17 07:08:24;;;;;;;11.45;6.40;;;32.30;99.90;;;;;;5000888;28;20413;-77
2023/06/17 07:10:50;;;;;;;10.10;5.93;;;32.40;99.90;;;;;;4998450;28;20439;-77
2023/06/17 07:13:17;;;;;;;10.80;5.70;;;32.20;99.90;;;;;;5003288;28;20428;-75
2023/06/17 07:15:43;;;;;;;12.02;6.30;;;31.50;99.90;;;;;;5002984;28;20544;-76
2023/06/17 07:18:10;;;;;;;10.80;6.30;;;31.40;99.90;;;;;;5005122;28;20478;-76
2023/06/17 07:20:35;;;;;;;10.48;5.57;;;31.70;99.90;;;;;;5001094;28;21332;-76
2023/06/17 07:23:01;;;;;;;12.03;6.37;;;32.40;99.90;;;;;;5006450;28;20397;-76
2023/06/17 07:25:26;;;;;;;11.40;6.38;;;32.50;99.90;;;;;;5009225;28;20389;-76
2023/06/17 07:30:27;;;;;;;11.25;6.00;;;32.50;99.90;;;;;;4065298;23;20804;-77
2023/06/17 07:32:53;;;;;;;11.00;6.35;;;33.20;99.90;;;;;;4989614;28;20417;-77
2023/06/17 07:35:19;;;;;;;12.37;6.20;;;33.80;99.90;;;;;;4998937;28;20433;-76
2023/06/17 07:37:44;;;;;;;9.95;5.50;;;33.80;99.90;;;;;;4995336;28;20786;-75
2023/06/17 07:40:11;;;;;;;10.60;5.53;;;33.00;99.90;;;;;;5005760;28;20425;-76
2023/06/17 07:42:37;;;;;;;10.97;5.70;;;32.90;99.90;;;;;;5007966;28;20404;-77
2023/06/17 07:45:04;;;;;;;10.00;5.68;;;32.90;99.90;;;;;;5006583;28;20407;-77
2023/06/17 07:47:30;;;;;;;10.35;5.55;;;32.30;99.90;;;;;;4993100;28;20419;-77
2023/06/17 07:49:56;;;;;;;10.60;5.63;;;31.50;99.90;;;;;;5006174;28;20428;-76
2023/06/17 07:52:21;;;;;;;10.07;5.95;;;30.90;99.90;;;;;;5009675;28;20471;-77
2023/06/17 07:54:47;;;;;;;10.87;5.70;;;30.90;99.90;;;;;;5011694;28;20455;-77
2023/06/17 07:57:13;;;;;;;12.32;5.28;;;32.20;99.90;;;;;;5011863;28;20385;-77
2023/06/17 07:59:41;;;;;;;9.50;5.10;;;33.80;99.90;;;;;;4999669;28;20437;-77
2023/06/17 08:02:06;;;;;;;10.90;5.30;;;34.20;99.90;;;;;;4999020;28;20896;-77
2023/06/17 08:04:32;;;;;;;9.90;5.30;;;34.60;99.90;;;;;;5007861;28;20468;-77
2023/06/17 08:06:57;;;;;;;9.20;4.93;;;35.10;99.90;;;;;;4998610;28;20496;-77
2023/06/17 08:09:23;;;;;;;9.27;4.80;;;35.80;99.90;;;;;;5002443;28;20493;-77
2023/06/17 08:11:48;;;;;;;9.60;4.87;;;35.70;99.90;;;;;;5007437;28;20392;-77
2023/06/17 08:14:15;;;;;;;13.20;5.33;;;35.50;99.90;;;;;;4994500;28;20394;-77
2023/06/17 08:16:41;;;;;;;10.73;5.73;;;34.00;99.90;;;;;;4974504;28;20418;-78
2023/06/17 08:19:07;;;;;;;10.63;5.32;;;34.60;99.90;;;;;;4993488;28;20793;-77
2023/06/17 08:21:34;;;;;;;9.73;4.87;;;35.80;99.90;;;;;;4999729;28;20426;-77
2023/06/17 08:24:25;;;;;;;9.30;5.30;;;36.60;99.90;;;;;;5007206;28;20907;-77
2023/06/17 08:26:52;;;;;;;8.93;5.10;;;36.30;99.90;;;;;;5000055;28;20887;-75
2023/06/17 08:29:18;;;;;;;9.82;4.78;;;37.10;99.90;;;;;;5008737;28;20436;-75
2023/06/17 08:31:47;;;;;;;12.40;6.10;;;37.70;99.90;;;;;;5002715;28;20459;-75
2023/06/17 08:34:13;;;;;;;9.00;4.70;;;37.10;99.90;;;;;;5000612;28;20446;-77
2023/06/17 08:36:41;;;;;;;10.40;5.17;;;36.70;99.90;;;;;;4997436;28;20443;-77
2023/06/17 08:39:08;;;;;;;11.90;5.43;;;36.80;99.90;;;;;;5001696;28;20434;-75
2023/06/17 08:41:43;;;;;;;11.55;5.40;;;36.60;99.90;;;;;;5011561;28;20384;-77
2023/06/17 08:44:11;;;;;;;15.45;6.35;;;35.80;99.90;;;;;;5007293;28;20389;-77
2023/06/17 08:46:38;;;;;;;11.63;5.50;;;36.40;99.90;;;;;;4988294;28;20402;-77
2023/06/17 08:49:06;;;;;;;12.70;5.75;;;;;;;;;;5006517;28;20381;-77
2023/06/17 08:51:32;;;;;;;12.15;5.70;;;38.00;99.90;;;;;;5004043;28;20410;-77
2023/06/17 08:53:57;;;;;;;9.13;5.10;;;38.80;99.90;;;;;;5001163;28;20458;-77
2023/06/17 08:56:23;;;;;;;12.07;4.97;;;37.80;99.90;;;;;;5004874;28;20409;-77
2023/06/17 08:58:54;;;;;;;11.98;5.82;;;37.50;99.90;;;;;;5005734;28;20424;-78
2023/06/17 09:01:21;;;;;;;9.85;4.80;;;38.20;99.90;;;;;;5004560;28;20491;-77
2023/06/17 09:03:50;;;;;;;8.37;4.60;;;39.30;99.90;;;;;;5009822;28;20416;-77
2023/06/17 12:00:09;;;;;;;8.70;3.60;;;31.60;99.90;;;;;;3916927;23;22345;-72
2023/06/17 12:02:35;;;;;;;8.40;3.38;;;31.60;99.90;;;;;;4960904;28;20424;-72
2023/06/17 12:05:02;;;;;;;8.10;3.38;;;31.30;99.90;;;;;;4958866;28;20436;-72
2023/06/17 12:07:28;;;;;;;8.35;3.25;;;30.90;99.90;;;;;;4958545;28;20411;-72
2023/06/17 12:09:54;;;;;;;8.65;3.30;;;30.90;99.90;;;;;;4966035;28;20499;-71
2023/06/17 12:12:35;;;;;;;8.40;3.42;;;30.90;99.90;;;;;;4959268;28;20929;-71
2023/06/17 12:15:12;;;;;;;8.23;3.30;;;30.90;99.90;;;;;;4964852;28;20484;-71
2023/06/17 12:17:46;;;;;;;10.80;4.03;;;30.90;99.90;;;;;;4964945;28;20416;-71
2023/06/17 12:20:13;;;;;;;9.80;3.42;;;30.70;99.90;;;;;;4968508;28;20891;-71
2023/06/17 12:22:39;;;;;;;10.20;4.30;;;30.60;99.90;;;;;;4971668;28;20749;-71
2023/06/17 12:25:05;;;;;;;8.80;3.60;;;31.00;99.90;;;;;;4971487;28;20400;-71
2023/06/17 12:27:31;;;;;;;10.15;4.13;;;31.00;99.90;;;;;;4971474;28;20403;-71
2023/06/17 12:29:59;;;;;;;10.90;3.60;;;31.00;99.90;;;;;;4971130;28;20387;-71
2023/06/17 12:32:24;;;;;;;12.00;3.45;;;30.80;99.90;;;;;;4972022;28;20405;-71
2023/06/17 12:34:51;;;;;;;16.08;3.97;;;30.70;99.90;;;;;;4971816;28;20400;-71
2023/06/17 12:37:21;;;;;;;11.33;4.00;;;31.00;99.90;;;;;;4972072;28;20398;-71
2023/06/17 12:39:47;;;;;;;9.10;5.20;;;31.50;99.90;;;;;;4971889;28;20940;-71
2023/06/17 12:42:12;;;;;;;9.02;3.42;;;31.50;99.90;;;;;;4971603;28;20396;-71
2023/06/17 12:44:38;;;;;;;9.00;3.88;;;30.80;99.90;;;;;;4971082;28;20515;-71
2023/06/17 12:47:04;;;;;;;10.73;4.23;;;30.80;99.90;;;;;;4971609;28;20969;-71
2023/06/17 12:49:29;;;;;;;10.18;4.07;;;30.90;99.90;;;;;;4971437;28;20458;-71
2023/06/17 12:51:55;;;;;;;8.07;3.60;;;30.70;99.90;;;;;;4972013;28;20392;-71
2023/06/17 12:54:20;;;;;;;12.20;3.70;;;30.80;99.90;;;;;;4971334;28;20404;-71
2023/06/17 12:56:46;;;;;;;8.50;3.78;;;31.00;99.90;;;;;;4971455;28;20495;-71
2023/06/17 12:59:11;;;;;;;9.83;4.20;;;30.90;99.90;;;;;;4971085;28;20424;-71
2023/06/17 13:01:37;;;;;;;9.10;3.97;;;30.50;99.90;;;;;;4971153;28;20463;-71
2023/06/17 13:04:02;;;;;;;9.40;3.67;;;30.40;99.90;;;;;;4971635;28;20401;-71
2023/06/17 13:06:28;;;;;;;9.53;4.20;;;30.60;99.90;;;;;;4971176;28;20400;-71
2023/06/17 13:08:54;;;;;;;8.07;3.40;;;30.70;99.90;;;;;;4972076;28;20441;-71
2023/06/17 13:11:19;;;;;;;9.00;3.60;;;30.80;99.90;;;;;;4971356;28;20472;-71
2023/06/17 13:13:45;;;;;;;8.60;3.80;;;31.00;99.90;;;;;;4970818;28;20404;-71
2023/06/17 13:16:11;;;;;;;11.18;4.25;;;31.00;99.90;;;;;;4970677;28;20400;-71
2023/06/17 13:18:36;;;;;;;9.13;3.67;;;31.20;99.90;;;;;;4970590;28;20750;-71
2023/06/17 13:21:02;;;;;;;8.73;3.37;;;31.10;99.90;;;;;;4970617;28;20384;-71
2023/06/17 13:23:27;;;;;;;9.33;4.57;;;30.90;99.90;;;;;;4970752;28;20509;-71
2023/06/17 13:25:53;;;;;;;8.40;3.72;;;31.10;99.90;;;;;;4971130;28;20420;-71
2023/06/17 13:28:20;;;;;;;8.80;4.10;;;31.00;99.90;;;;;;4970298;28;20812;-71
2023/06/17 13:30:49;;;;;;;12.65;3.80;;;30.90;99.90;;;;;;4969864;28;20431;-72
2023/06/17 13:33:14;;;;;;;9.18;4.18;;;30.70;99.90;;;;;;4969845;28;20516;-71
2023/06/17 13:35:40;;;;;;;8.40;3.70;;;30.60;99.90;;;;;;4970606;28;20491;-71
2023/06/17 13:38:05;;;;;;;9.30;3.97;;;30.60;99.90;;;;;;4970177;28;20420;-71
2023/06/17 13:40:31;;;;;;;8.90;3.90;;;30.60;99.90;;;;;;4970319;28;20431;-71
2023/06/17 13:42:56;;;;;;;11.87;3.93;;;31.00;99.90;;;;;;4970676;28;20393;-71
2023/06/17 13:45:22;;;;;;;8.40;3.40;;;30.50;99.90;;;;;;4970526;28;20752;-71
2023/06/17 13:47:47;;;;;;;10.80;3.60;;;30.50;99.90;;;;;;4970171;28;20783;-71
2023/06/17 13:50:13;;;;;;;8.40;4.00;;;30.80;99.90;;;;;;4970340;28;20914;-71
2023/06/17 13:52:38;;;;;;;8.30;3.70;;;30.50;99.90;;;;;;4970008;28;20938;-71
2023/06/17 13:55:04;;;;;;;9.18;4.00;;;30.60;99.90;;;;;;4970076;28;20987;-71
2023/06/17 13:57:30;;;;;;;10.43;4.10;;;30.80;99.90;;;;;;4968485;28;20451;-71
2023/06/17 13:59:56;;;;;;;8.90;4.03;;;30.60;99.90;;;;;;4970234;28;20411;-71
2023/06/17 14:02:21;;;;;;;8.73;3.90;;;30.40;99.90;;;;;;4970524;28;20424;-71
2023/06/17 14:04:47;;;;;;;8.48;3.75;;;30.60;99.90;;;;;;4969852;28;20403;-71
2023/06/17 14:07:12;;;;;;;8.35;4.30;;;30.70;99.90;;;;;;4969739;28;20400;-72
2023/06/17 14:09:38;;;;;;;8.70;3.70;;;30.80;99.90;;;;;;4969780;28;20476;-72
2023/06/17 14:12:04;;;;;;;11.00;4.40;;;30.80;99.90;;;;;;4969839;28;20392;-72
2023/06/17 14:14:30;;;;;;;9.70;4.50;;;30.60;99.90;;;;;;4969795;28;20427;-72
2023/06/17 14:16:57;;;;;;;8.20;3.60;;;30.70;99.90;;;;;;4970948;28;20400;-71
2023/06/17 14:19:22;;;;;;;12.35;4.40;;;30.50;99.90;;;;;;4970390;28;20900;-71
2023/06/17 14:21:56;;;;;;;10.30;4.23;;;30.60;99.90;;;;;;4969801;28;20396;-71
2023/06/17 14:24:22;;;;;;;10.47;4.40;;;30.90;99.90;;;;;;4970222;28;20392;-71
2023/06/17 14:27:02;;;;;;;9.10;3.67;;;30.90;99.90;;;;;;4969619;28;20800;-72
2023/06/17 14:29:28;;;;;;;9.60;4.40;;;30.30;99.90;;;;;;4969834;28;20411;-72
2023/06/17 14:31:53;;;;;;;9.97;4.10;;;30.30;99.90;;;;;;4970084;28;20889;-72
2023/06/17 14:34:19;;;;;;;10.00;4.10;;;30.60;99.90;;;;;;4969954;28;20404;-72
2023/06/17 14:36:44;;;;;;;8.90;4.00;;;30.60;99.90;;;;;;4969772;28;20436;-72
2023/06/17 14:39:10;;;;;;;8.30;3.97;;;30.40;99.90;;;;;;4969563;28;20458;-72
2023/06/17 14:41:35;;;;;;;8.40;4.03;;;30.20;99.90;;;;;;4969724;28;20396;-72
2023/06/17 14:44:01;;;;;;;9.65;4.18;;;30.30;99.90;;;;;;4968986;28;20451;-72
2023/06/17 14:46:26;;;;;;;8.50;4.30;;;30.60;99.90;;;;;;4970398;28;20475;-72
2023/06/17 14:48:52;;;;;;;9.70;4.23;;;30.90;99.90;;;;;;4970040;28;20483;-72
2023/06/17 14:51:17;;;;;;;9.75;4.70;;;30.80;99.90;;;;;;4969554;28;20438;-72
2023/06/17 14:53:43;;;;;;;9.10;4.13;;;30.50;99.90;;;;;;4969278;28;20399;-72
2023/06/17 14:56:30;;;;;;;9.73;4.00;;;30.30;99.90;;;;;;4969261;28;20479;-72
2023/06/17 14:59:03;;;;;;;10.45;4.55;;;30.20;99.90;;;;;;4969918;28;20908;-72
2023/06/17 15:01:32;;;;;;;10.27;4.90;;;30.30;99.90;;;;;;4969298;28;20443;-72
2023/06/17 15:03:57;;;;;;;9.48;4.45;;;30.10;99.90;;;;;;4969351;28;20392;-72
2023/06/17 15:06:23;;;;;;;10.25;4.47;;;29.90;99.90;;;;;;4969680;28;20899;-72
2023/06/17 15:08:49;;;;;;;9.80;5.10;;;29.60;99.90;;;;;;4968878;28;21116;-72
2023/06/17 15:11:16;;;;;;;9.85;4.60;;;29.70;99.90;;;;;;4969336;28;20715;-72
2023/06/17 15:13:42;;;;;;;10.50;4.47;;;30.00;99.90;;;;;;4969229;28;20897;-72
2023/06/17 15:16:07;;;;;;;10.80;4.80;;;30.10;99.90;;;;;;4969272;28;20404;-72
2023/06/17 15:18:36;;;;;;;10.13;4.73;;;30.20;99.90;;;;;;4969141;28;20435;-72
2023/06/17 15:21:02;;;;;;;8.55;4.15;;;30.00;99.90;;;;;;4968935;28;20719;-72
2023/06/17 15:23:27;;;;;;;9.55;4.50;;;30.00;99.90;;;;;;4968840;28;20412;-72
2023/06/17 15:25:53;;;;;;;11.10;4.13;;;30.00;99.90;;;;;;4969509;28;20408;-72
2023/06/17 15:28:18;;;;;;;10.10;5.38;;;30.00;99.90;;;;;;4969188;28;20407;-72
2023/06/17 15:30:44;;;;;;;10.00;4.20;;;30.20;99.90;;;;;;4969121;28;20475;-72
2023/06/17 15:33:09;;;;;;;9.40;4.43;;;30.20;99.90;;;;;;4969366;28;20418;-72